sensor_id;sensor_type;location;lat;lon;timestamp;temperature;humidity
15707;DHT22;7953;54.302;10.128;2023-09-18T00:02:09;18.70;99.90
15707;DHT22;7953;54.302;10.128;2023-09-18T00:04:36;18.70;99.90
15707;DHT22;7953;54.302;10.128;2023-09-18T00:07:03;18.70;99.90
15707;DHT22;7953;54.302;10.128;2023-09-18T00:09:29;18.60;99.90
15707;DHT22;7953;54.302;10.128;2023-09-18T00:11:56;18.50;99.90
15707;DHT22;7953;54.302;10.128;2023-09-18T00:14:23;18.60;99.90
15707;DHT22;7953;54.302;10.128;2023-09-18T00:16:51;18.50;99.90
15707;DHT22;7953;54.302;10.128;2023-09-18T00:19:19;18.50;99.90
15707;DHT22;7953;54.302;10.128;2023-09-18T00:21:46;18.50;99.90
15707;DHT22;7953;54.302;10.128;2023-09-18T00:24:13;18.50;99.90
15707;DHT22;7953;54.302;10.128;2023-09-18T00:26:40;18.50;99.90
15707;DHT22;7953;54.302;10.128;2023-09-18T00:29:07;18.40;99.90
15707;DHT22;7953;54.302;10.128;2023-09-18T00:31:34;18.50;99.90
15707;DHT22;7953;54.302;10.128;2023-09-18T00:34:01;18.50;99.90
15707;DHT22;7953;54.302;10.128;2023-09-18T00:36:29;18.50;99.90
15707;DHT22;7953;54.302;10.128;2023-09-18T00:38:56;18.50;99.90
15707;DHT22;7953;54.302;10.128;2023-09-18T00:41:23;18.50;99.90
15707;DHT22;7953;54.302;10.128;2023-09-18T00:43:50;18.40;99.90
15707;DHT22;7953;54.302;10.128;2023-09-18T00:46:17;18.40;99.90
15707;DHT22;7953;54.302;10.128;2023-09-18T00:48:45;18.40;99.90
15707;DHT22;7953;54.302;10.128;2023-09-18T00:51:13;18.40;99.90
15707;DHT22;7953;54.302;10.128;2023-09-18T00:53:44;18.40;99.90
15707;DHT22;7953;54.302;10.128;2023-09-18T00:56:11;18.30;99.90
15707;DHT22;7953;54.302;10.128;2023-09-18T00:58:39;18.30;99.90
15707;DHT22;7953;54.302;10.128;2023-09-18T01:01:07;18.30;99.90
15707;DHT22;7953;54.302;10.128;2023-09-18T01:03:35;18.30;99.90
15707;DHT22;7953;54.302;10.128;2023-09-18T01:06:02;18.20;99.90
15707;DHT22;7953;54.302;10.128;2023-09-18T01:08:29;18.20;99.90
15707;DHT22;7953;54.302;10.128;2023-09-18T01:11:03;18.20;99.90
15707;DHT22;7953;54.302;10.128;2023-09-18T01:13:37;18.10;99.90
15707;DHT22;7953;54.302;10.128;2023-09-18T01:16:10;18.20;99.90
15707;DHT22;7953;54.302;10.128;2023-09-18T01:18:48;18.20;99.90
15707;DHT22;7953;54.302;10.128;2023-09-18T01:21:16;18.20;99.90
15707;DHT22;7953;54.302;10.128;2023-09-18T01:23:44;18.20;99.90
15707;DHT22;7953;54.302;10.128;2023-09-18T01:26:11;18.20;99.90
15707;DHT22;7953;54.302;10.128;2023-09-18T01:28:38;18.20;99.90
15707;DHT22;7953;54.302;10.128;2023-09-18T01:31:05;18.20;99.90
15707;DHT22;7953;54.302;10.128;2023-09-18T01:33:32;18.20;99.90
15707;DHT22;7953;54.302;10.128;2023-09-18T01:36:01;18.10;99.90
15707;DHT22;7953;54.302;10.128;2023-09-18T01:38:29;18.10;99.90
15707;DHT22;7953;54.302;10.128;2023-09-18T01:40:57;18.00;99.90
15707;DHT22;7953;54.302;10.128;2023-09-18T01:43:24;18.00;99.90
15707;DHT22;7953;54.302;10.128;2023-09-18T01:45:51;17.90;99.90
15707;DHT22;7953;54.302;10.128;2023-09-18T01:48:19;17.90;99.90
15707;DHT22;7953;54.302;10.128;2023-09-18T01:50:45;17.90;99.90
15707;DHT22;7953;54.302;10.128;2023-09-18T01:53:13;17.90;99.90
15707;DHT22;7953;54.302;10.128;2023-09-18T01:55:40;17.90;99.90
15707;DHT22;7953;54.302;10.128;2023-09-18T01:58:08;17.90;99.90
15707;DHT22;7953;54.302;10.128;2023-09-18T02:00:35;17.90;99.90
15707;DHT22;7953;54.302;10.128;2023-09-18T02:03:02;17.80;99.90
15707;DHT22;7953;54.302;10.128;2023-09-18T02:05:30;17.80;99.90
15707;DHT22;7953;54.302;10.128;2023-09-18T02:07:58;17.90;99.90
15707;DHT22;7953;54.302;10.128;2023-09-18T02:10:25;17.90;99.90
15707;DHT22;7953;54.302;10.128;2023-09-18T02:12:53;17.80;99.90
15707;DHT22;7953;54.302;10.128;2023-09-18T02:15:21;17.80;99.90
15707;DHT22;7953;54.302;10.128;2023-09-18T02:17:48;17.80;99.90
15707;DHT22;7953;54.302;10.128;2023-09-18T02:20:15;17.90;99.90
15707;DHT22;7953;54.302;10.128;2023-09-18T02:22:43;17.90;99.90
15707;DHT22;7953;54.302;10.128;2023-09-18T02:25:12;17.80;99.90
15707;DHT22;7953;54.302;10.128;2023-09-18T02:27:39;17.80;99.90
15707;DHT22;7953;54.302;10.128;2023-09-18T02:30:07;17.80;99.90
15707;DHT22;7953;54.302;10.128;2023-09-18T02:32:36;17.80;99.90
15707;DHT22;7953;54.302;10.128;2023-09-18T02:35:04;17.90;99.90
15707;DHT22;7953;54.302;10.128;2023-09-18T02:37:41;17.90;99.90
15707;DHT22;7953;54.302;10.128;2023-09-18T02:40:09;17.80;99.90
15707;DHT22;7953;54.302;10.128;2023-09-18T02:42:36;17.90;99.90
15707;DHT22;7953;54.302;10.128;2023-09-18T02:45:04;17.90;99.90
15707;DHT22;7953;54.302;10.128;2023-09-18T02:47:31;17.80;99.90
15707;DHT22;7953;54.302;10.128;2023-09-18T02:50:00;17.80;99.90
15707;DHT22;7953;54.302;10.128;2023-09-18T02:52:29;17.70;99.90
15707;DHT22;7953;54.302;10.128;2023-09-18T02:54:56;17.80;99.90
15707;DHT22;7953;54.302;10.128;2023-09-18T02:57:23;17.70;99.90
15707;DHT22;7953;54.302;10.128;2023-09-18T02:59:50;17.70;99.90
15707;DHT22;7953;54.302;10.128;2023-09-18T03:02:17;17.80;99.90
15707;DHT22;7953;54.302;10.128;2023-09-18T03:04:44;17.80;99.90
15707;DHT22;7953;54.302;10.128;2023-09-18T03:07:14;17.80;99.90
15707;DHT22;7953;54.302;10.128;2023-09-18T03:09:41;17.80;99.90
15707;DHT22;7953;54.302;10.128;2023-09-18T03:12:08;17.80;99.90
15707;DHT22;7953;54.302;10.128;2023-09-18T03:14:36;17.70;99.90
15707;DHT22;7953;54.302;10.128;2023-09-18T03:17:03;17.70;99.90
15707;DHT22;7953;54.302;10.128;2023-09-18T03:19:30;17.70;99.90
15707;DHT22;7953;54.302;10.128;2023-09-18T03:21:57;17.70;99.90
15707;DHT22;7953;54.302;10.128;2023-09-18T03:24:25;17.70;99.90
15707;DHT22;7953;54.302;10.128;2023-09-18T03:26:52;17.80;99.90
15707;DHT22;7953;54.302;10.128;2023-09-18T03:29:19;17.80;99.90
15707;DHT22;7953;54.302;10.128;2023-09-18T03:31:46;17.80;99.90
15707;DHT22;7953;54.302;10.128;2023-09-18T03:34:13;17.90;99.90
15707;DHT22;7953;54.302;10.128;2023-09-18T03:36:40;17.90;99.90
15707;DHT22;7953;54.302;10.128;2023-09-18T03:39:06;17.80;99.90
15707;DHT22;7953;54.302;10.128;2023-09-18T03:41:36;17.90;99.90
15707;DHT22;7953;54.302;10.128;2023-09-18T03:44:04;17.80;99.90
15707;DHT22;7953;54.302;10.128;2023-09-18T03:46:31;17.80;99.90
15707;DHT22;7953;54.302;10.128;2023-09-18T03:48:58;17.80;99.90
15707;DHT22;7953;54.302;10.128;2023-09-18T03:51:25;17.80;99.90
15707;DHT22;7953;54.302;10.128;2023-09-18T03:53:51;17.80;99.90
15707;DHT22;7953;54.302;10.128;2023-09-18T03:56:18;17.80;99.90
15707;DHT22;7953;54.302;10.128;2023-09-18T03:58:47;17.80;99.90
15707;DHT22;7953;54.302;10.128;2023-09-18T04:01:15;17.80;99.90
15707;DHT22;7953;54.302;10.128;2023-09-18T04:03:42;17.80;99.90
15707;DHT22;7953;54.302;10.128;2023-09-18T04:06:08;17.80;99.90
15707;DHT22;7953;54.302;10.128;2023-09-18T04:08:35;17.80;99.90
15707;DHT22;7953;54.302;10.128;2023-09-18T04:11:02;17.90;99.90
15707;DHT22;7953;54.302;10.128;2023-09-18T04:13:29;17.90;99.90
15707;DHT22;7953;54.302;10.128;2023-09-18T04:15:58;17.90;99.90
15707;DHT22;7953;54.302;10.128;2023-09-18T04:18:26;17.90;99.90
15707;DHT22;7953;54.302;10.128;2023-09-18T04:20:53;17.90;99.90
15707;DHT22;7953;54.302;10.128;2023-09-18T04:23:22;17.80;99.90
15707;DHT22;7953;54.302;10.128;2023-09-18T04:25:49;17.80;99.90
15707;DHT22;7953;54.302;10.128;2023-09-18T04:28:17;17.90;99.90
15707;DHT22;7953;54.302;10.128;2023-09-18T04:30:45;17.90;99.90
15707;DHT22;7953;54.302;10.128;2023-09-18T04:33:13;17.80;99.90
15707;DHT22;7953;54.302;10.128;2023-09-18T04:35:40;17.80;99.90
15707;DHT22;7953;54.302;10.128;2023-09-18T04:38:07;17.70;99.90
15707;DHT22;7953;54.302;10.128;2023-09-18T04:40:38;17.70;99.90
15707;DHT22;7953;54.302;10.128;2023-09-18T04:43:05;17.70;99.90
15707;DHT22;7953;54.302;10.128;2023-09-18T04:45:32;17.70;99.90
15707;DHT22;7953;54.302;10.128;2023-09-18T04:47:59;17.70;99.90
15707;DHT22;7953;54.302;10.128;2023-09-18T04:50:27;17.70;99.90
15707;DHT22;7953;54.302;10.128;2023-09-18T04:52:55;17.70;99.90
15707;DHT22;7953;54.302;10.128;2023-09-18T04:55:23;17.70;99.90
15707;DHT22;7953;54.302;10.128;2023-09-18T04:57:50;17.80;99.90
15707;DHT22;7953;54.302;10.128;2023-09-18T05:00:17;17.80;99.90
15707;DHT22;7953;54.302;10.128;2023-09-18T05:02:48;17.80;99.90
15707;DHT22;7953;54.302;10.128;2023-09-18T05:05:15;17.90;99.90
15707;DHT22;7953;54.302;10.128;2023-09-18T05:07:45;17.90;99.90
15707;DHT22;7953;54.302;10.128;2023-09-18T05:10:11;17.90;99.90
15707;DHT22;7953;54.302;10.128;2023-09-18T05:12:39;17.90;99.90
15707;DHT22;7953;54.302;10.128;2023-09-18T05:15:07;17.90;99.90
15707;DHT22;7953;54.302;10.128;2023-09-18T05:17:43;17.90;99.90
15707;DHT22;7953;54.302;10.128;2023-09-18T05:20:12;17.90;99.90
15707;DHT22;7953;54.302;10.128;2023-09-18T05:22:41;17.80;99.90
15707;DHT22;7953;54.302;10.128;2023-09-18T05:25:10;17.80;99.90
15707;DHT22;7953;54.302;10.128;2023-09-18T05:27:37;17.80;99.90
15707;DHT22;7953;54.302;10.128;2023-09-18T05:30:11;17.80;99.90
15707;DHT22;7953;54.302;10.128;2023-09-18T05:32:38;17.80;99.90
15707;DHT22;7953;54.302;10.128;2023-09-18T05:35:06;17.80;99.90
15707;DHT22;7953;54.302;10.128;2023-09-18T05:37:36;17.80;99.90
15707;DHT22;7953;54.302;10.128;2023-09-18T05:40:04;17.80;99.90
15707;DHT22;7953;54.302;10.128;2023-09-18T05:42:34;17.80;99.90
15707;DHT22;7953;54.302;10.128;2023-09-18T05:45:00;17.80;99.90
15707;DHT22;7953;54.302;10.128;2023-09-18T05:47:27;17.90;99.90
15707;DHT22;7953;54.302;10.128;2023-09-18T05:49:55;17.90;99.90
15707;DHT22;7953;54.302;10.128;2023-09-18T05:52:22;18.00;99.90
15707;DHT22;7953;54.302;10.128;2023-09-18T05:54:50;18.00;99.90
15707;DHT22;7953;54.302;10.128;2023-09-18T05:57:18;18.00;99.90
15707;DHT22;7953;54.302;10.128;2023-09-18T05:59:46;18.00;99.90
15707;DHT22;7953;54.302;10.128;2023-09-18T06:02:13;18.00;99.90
15707;DHT22;7953;54.302;10.128;2023-09-18T06:04:42;18.10;99.90
15707;DHT22;7953;54.302;10.128;2023-09-18T06:07:08;18.00;99.90
15707;DHT22;7953;54.302;10.128;2023-09-18T06:09:35;18.10;99.90
15707;DHT22;7953;54.302;10.128;2023-09-18T06:12:03;18.10;99.90
15707;DHT22;7953;54.302;10.128;2023-09-18T06:14:30;18.20;99.90
15707;DHT22;7953;54.302;10.128;2023-09-18T06:17:01;18.20;99.90
15707;DHT22;7953;54.302;10.128;2023-09-18T06:19:27;18.30;99.90
15707;DHT22;7953;54.302;10.128;2023-09-18T06:21:54;18.30;99.90
15707;DHT22;7953;54.302;10.128;2023-09-18T06:24:21;18.30;99.90
15707;DHT22;7953;54.302;10.128;2023-09-18T06:26:48;18.30;99.90
15707;DHT22;7953;54.302;10.128;2023-09-18T06:29:16;18.30;99.90
15707;DHT22;7953;54.302;10.128;2023-09-18T06:31:43;18.40;99.90
15707;DHT22;7953;54.302;10.128;2023-09-18T06:34:11;18.40;99.90
15707;DHT22;7953;54.302;10.128;2023-09-18T06:36:38;18.40;99.90
15707;DHT22;7953;54.302;10.128;2023-09-18T06:39:06;18.50;99.90
15707;DHT22;7953;54.302;10.128;2023-09-18T06:41:33;18.40;99.90
15707;DHT22;7953;54.302;10.128;2023-09-18T06:44:00;18.50;99.90
15707;DHT22;7953;54.302;10.128;2023-09-18T06:46:29;18.50;99.90
15707;DHT22;7953;54.302;10.128;2023-09-18T06:48:56;18.60;99.90
15707;DHT22;7953;54.302;10.128;2023-09-18T06:51:24;18.60;99.90
15707;DHT22;7953;54.302;10.128;2023-09-18T06:53:51;18.70;99.90
15707;DHT22;7953;54.302;10.128;2023-09-18T06:56:18;18.80;99.90
15707;DHT22;7953;54.302;10.128;2023-09-18T06:58:45;18.90;99.90
15707;DHT22;7953;54.302;10.128;2023-09-18T07:01:13;19.00;99.90
15707;DHT22;7953;54.302;10.128;2023-09-18T07:03:41;19.00;99.90
15707;DHT22;7953;54.302;10.128;2023-09-18T07:06:07;19.10;99.90
15707;DHT22;7953;54.302;10.128;2023-09-18T07:08:36;19.20;99.90
15707;DHT22;7953;54.302;10.128;2023-09-18T07:11:02;19.40;99.90
15707;DHT22;7953;54.302;10.128;2023-09-18T07:13:29;19.30;99.90
15707;DHT22;7953;54.302;10.128;2023-09-18T07:15:56;19.40;99.90
15707;DHT22;7953;54.302;10.128;2023-09-18T07:18:23;19.50;99.90
15707;DHT22;7953;54.302;10.128;2023-09-18T07:20:50;19.50;99.90
15707;DHT22;7953;54.302;10.128;2023-09-18T07:23:17;19.60;99.90
15707;DHT22;7953;54.302;10.128;2023-09-18T07:25:47;19.60;99.90
15707;DHT22;7953;54.302;10.128;2023-09-18T07:28:14;19.70;99.90
15707;DHT22;7953;54.302;10.128;2023-09-18T07:30:43;19.70;99.90
15707;DHT22;7953;54.302;10.128;2023-09-18T07:33:10;19.80;99.90
15707;DHT22;7953;54.302;10.128;2023-09-18T07:35:38;19.70;99.90
15707;DHT22;7953;54.302;10.128;2023-09-18T07:38:05;19.80;99.90
15707;DHT22;7953;54.302;10.128;2023-09-18T07:40:33;20.00;99.90
15707;DHT22;7953;54.302;10.128;2023-09-18T07:43:02;20.00;99.90
15707;DHT22;7953;54.302;10.128;2023-09-18T07:45:29;20.10;99.90
15707;DHT22;7953;54.302;10.128;2023-09-18T07:47:56;20.20;99.90
15707;DHT22;7953;54.302;10.128;2023-09-18T07:50:22;20.30;99.90
15707;DHT22;7953;54.302;10.128;2023-09-18T07:52:50;20.40;99.90
15707;DHT22;7953;54.302;10.128;2023-09-18T07:55:17;20.40;99.90
15707;DHT22;7953;54.302;10.128;2023-09-18T07:57:43;20.50;99.90
15707;DHT22;7953;54.302;10.128;2023-09-18T08:00:13;20.50;99.90
15707;DHT22;7953;54.302;10.128;2023-09-18T08:02:41;20.50;99.90
15707;DHT22;7953;54.302;10.128;2023-09-18T08:05:08;20.60;99.90
15707;DHT22;7953;54.302;10.128;2023-09-18T08:07:35;20.70;99.90
15707;DHT22;7953;54.302;10.128;2023-09-18T08:10:03;20.70;99.90
15707;DHT22;7953;54.302;10.128;2023-09-18T08:12:31;20.80;99.90
15707;DHT22;7953;54.302;10.128;2023-09-18T08:14:58;20.80;99.90
15707;DHT22;7953;54.302;10.128;2023-09-18T08:17:27;20.90;99.90
15707;DHT22;7953;54.302;10.128;2023-09-18T08:19:53;20.90;99.90
15707;DHT22;7953;54.302;10.128;2023-09-18T08:22:21;21.00;99.90
15707;DHT22;7953;54.302;10.128;2023-09-18T08:24:49;21.10;99.90
15707;DHT22;7953;54.302;10.128;2023-09-18T08:27:18;21.20;99.90
15707;DHT22;7953;54.302;10.128;2023-09-18T08:29:45;21.30;99.90
15707;DHT22;7953;54.302;10.128;2023-09-18T08:32:12;21.30;99.90
15707;DHT22;7953;54.302;10.128;2023-09-18T08:34:41;21.40;99.90
15707;DHT22;7953;54.302;10.128;2023-09-18T08:37:08;21.50;99.90
15707;DHT22;7953;54.302;10.128;2023-09-18T08:39:35;21.60;99.90
15707;DHT22;7953;54.302;10.128;2023-09-18T08:42:04;21.70;99.90
15707;DHT22;7953;54.302;10.128;2023-09-18T08:44:31;21.80;99.90
15707;DHT22;7953;54.302;10.128;2023-09-18T08:46:58;21.90;99.90
15707;DHT22;7953;54.302;10.128;2023-09-18T08:49:26;21.90;99.90
15707;DHT22;7953;54.302;10.128;2023-09-18T08:51:57;21.90;99.90
15707;DHT22;7953;54.302;10.128;2023-09-18T08:54:25;22.00;99.90
15707;DHT22;7953;54.302;10.128;2023-09-18T08:56:54;22.00;99.90
15707;DHT22;7953;54.302;10.128;2023-09-18T08:59:22;21.90;99.90
15707;DHT22;7953;54.302;10.128;2023-09-18T09:01:49;21.90;99.90
15707;DHT22;7953;54.302;10.128;2023-09-18T09:04:16;21.90;99.90
15707;DHT22;7953;54.302;10.128;2023-09-18T09:06:42;21.90;99.90
15707;DHT22;7953;54.302;10.128;2023-09-18T09:09:11;21.80;99.90
15707;DHT22;7953;54.302;10.128;2023-09-18T09:11:48;21.80;99.90
15707;DHT22;7953;54.302;10.128;2023-09-18T09:14:16;21.70;99.90
15707;DHT22;7953;54.302;10.128;2023-09-18T09:16:46;21.70;99.90
15707;DHT22;7953;54.302;10.128;2023-09-18T09:19:15;21.80;99.90
15707;DHT22;7953;54.302;10.128;2023-09-18T09:21:42;21.70;99.90
15707;DHT22;7953;54.302;10.128;2023-09-18T09:24:11;21.80;99.90
15707;DHT22;7953;54.302;10.128;2023-09-18T09:26:40;21.80;99.90
15707;DHT22;7953;54.302;10.128;2023-09-18T09:29:18;21.70;99.90
15707;DHT22;7953;54.302;10.128;2023-09-18T09:31:46;21.80;99.90
15707;DHT22;7953;54.302;10.128;2023-09-18T09:34:24;21.80;99.90
15707;DHT22;7953;54.302;10.128;2023-09-18T09:36:53;21.90;99.90
15707;DHT22;7953;54.302;10.128;2023-09-18T09:39:23;22.00;99.90
15707;DHT22;7953;54.302;10.128;2023-09-18T09:41:51;22.10;99.90
15707;DHT22;7953;54.302;10.128;2023-09-18T09:44:18;22.20;99.90
15707;DHT22;7953;54.302;10.128;2023-09-18T09:46:46;22.20;99.90
15707;DHT22;7953;54.302;10.128;2023-09-18T09:49:14;22.30;99.90
15707;DHT22;7953;54.302;10.128;2023-09-18T09:51:41;22.40;99.90
15707;DHT22;7953;54.302;10.128;2023-09-18T09:54:09;22.40;99.90
15707;DHT22;7953;54.302;10.128;2023-09-18T09:56:45;22.50;99.90
15707;DHT22;7953;54.302;10.128;2023-09-18T09:59:13;22.50;99.90
15707;DHT22;7953;54.302;10.128;2023-09-18T10:01:41;22.50;99.90
15707;DHT22;7953;54.302;10.128;2023-09-18T10:04:12;22.60;99.90
15707;DHT22;7953;54.302;10.128;2023-09-18T10:06:44;22.60;99.90
15707;DHT22;7953;54.302;10.128;2023-09-18T10:09:13;22.50;99.90
15707;DHT22;7953;54.302;10.128;2023-09-18T10:11:43;22.50;99.90
15707;DHT22;7953;54.302;10.128;2023-09-18T10:14:16;22.60;99.90
15707;DHT22;7953;54.302;10.128;2023-09-18T10:16:53;22.60;99.90
15707;DHT22;7953;54.302;10.128;2023-09-18T10:19:27;22.70;99.90
15707;DHT22;7953;54.302;10.128;2023-09-18T10:22:04;22.70;99.90
15707;DHT22;7953;54.302;10.128;2023-09-18T10:24:37;22.70;99.90
15707;DHT22;7953;54.302;10.128;2023-09-18T10:27:06;22.80;99.90
15707;DHT22;7953;54.302;10.128;2023-09-18T10:29:36;22.80;99.90
15707;DHT22;7953;54.302;10.128;2023-09-18T10:32:05;22.90;99.90
15707;DHT22;7953;54.302;10.128;2023-09-18T10:34:34;23.00;99.90
15707;DHT22;7953;54.302;10.128;2023-09-18T10:37:02;23.10;99.90
15707;DHT22;7953;54.302;10.128;2023-09-18T10:39:34;23.10;99.90
15707;DHT22;7953;54.302;10.128;2023-09-18T10:42:02;23.00;99.90
15707;DHT22;7953;54.302;10.128;2023-09-18T10:44:32;23.00;99.90
15707;DHT22;7953;54.302;10.128;2023-09-18T10:47:02;22.90;99.90
15707;DHT22;7953;54.302;10.128;2023-09-18T10:49:31;22.90;99.90
15707;DHT22;7953;54.302;10.128;2023-09-18T10:51:58;22.80;99.90
15707;DHT22;7953;54.302;10.128;2023-09-18T10:54:27;22.70;99.90
15707;DHT22;7953;54.302;10.128;2023-09-18T10:56:56;22.70;99.90
15707;DHT22;7953;54.302;10.128;2023-09-18T10:59:23;22.70;99.90
15707;DHT22;7953;54.302;10.128;2023-09-18T11:01:50;22.60;99.90
15707;DHT22;7953;54.302;10.128;2023-09-18T11:04:20;22.70;99.90
15707;DHT22;7953;54.302;10.128;2023-09-18T11:07:01;22.70;99.90
15707;DHT22;7953;54.302;10.128;2023-09-18T11:09:32;22.70;99.90
15707;DHT22;7953;54.302;10.128;2023-09-18T11:12:03;22.70;99.90
15707;DHT22;7953;54.302;10.128;2023-09-18T11:14:48;22.70;99.90
15707;DHT22;7953;54.302;10.128;2023-09-18T11:17:30;22.80;99.90
15707;DHT22;7953;54.302;10.128;2023-09-18T11:20:09;22.80;99.90
15707;DHT22;7953;54.302;10.128;2023-09-18T11:22:38;22.80;99.90
15707;DHT22;7953;54.302;10.128;2023-09-18T11:25:36;22.90;99.90
15707;DHT22;7953;54.302;10.128;2023-09-18T11:28:04;22.90;99.90
15707;DHT22;7953;54.302;10.128;2023-09-18T11:30:33;22.90;99.90
15707;DHT22;7953;54.302;10.128;2023-09-18T11:33:03;23.00;99.90
15707;DHT22;7953;54.302;10.128;2023-09-18T11:35:32;23.00;99.90
15707;DHT22;7953;54.302;10.128;2023-09-18T11:38:06;23.10;99.90
15707;DHT22;7953;54.302;10.128;2023-09-18T11:40:35;23.10;99.90
15707;DHT22;7953;54.302;10.128;2023-09-18T11:43:20;23.20;99.90
15707;DHT22;7953;54.302;10.128;2023-09-18T11:45:51;23.30;99.90
15707;DHT22;7953;54.302;10.128;2023-09-18T11:48:19;23.40;99.90
15707;DHT22;7953;54.302;10.128;2023-09-18T11:50:48;23.40;99.90
15707;DHT22;7953;54.302;10.128;2023-09-18T11:53:19;23.50;99.90
15707;DHT22;7953;54.302;10.128;2023-09-18T11:55:50;23.60;99.90
15707;DHT22;7953;54.302;10.128;2023-09-18T11:58:18;23.60;99.90
15707;DHT22;7953;54.302;10.128;2023-09-18T12:00:49;23.60;99.90
15707;DHT22;7953;54.302;10.128;2023-09-18T12:03:28;23.50;99.90
15707;DHT22;7953;54.302;10.128;2023-09-18T12:06:04;23.20;99.90
15707;DHT22;7953;54.302;10.128;2023-09-18T12:08:32;23.10;99.90
15707;DHT22;7953;54.302;10.128;2023-09-18T12:11:05;23.00;99.90
15707;DHT22;7953;54.302;10.128;2023-09-18T12:13:32;23.00;99.90
15707;DHT22;7953;54.302;10.128;2023-09-18T12:15:59;22.90;99.90
15707;DHT22;7953;54.302;10.128;2023-09-18T12:18:27;22.80;99.90
15707;DHT22;7953;54.302;10.128;2023-09-18T12:20:57;22.70;99.90
15707;DHT22;7953;54.302;10.128;2023-09-18T12:23:26;22.70;99.90
15707;DHT22;7953;54.302;10.128;2023-09-18T12:26:00;22.80;99.90
15707;DHT22;7953;54.302;10.128;2023-09-18T12:28:29;22.90;99.90
15707;DHT22;7953;54.302;10.128;2023-09-18T12:30:59;23.00;99.90
15707;DHT22;7953;54.302;10.128;2023-09-18T12:33:34;23.10;99.90
15707;DHT22;7953;54.302;10.128;2023-09-18T12:36:01;23.10;99.90
15707;DHT22;7953;54.302;10.128;2023-09-18T12:38:30;23.00;99.90
15707;DHT22;7953;54.302;10.128;2023-09-18T12:40:57;22.90;99.90
15707;DHT22;7953;54.302;10.128;2023-09-18T12:43:33;22.90;99.90
15707;DHT22;7953;54.302;10.128;2023-09-18T12:46:03;22.80;99.90
15707;DHT22;7953;54.302;10.128;2023-09-18T12:48:31;22.80;99.90
15707;DHT22;7953;54.302;10.128;2023-09-18T12:51:02;22.70;99.90
15707;DHT22;7953;54.302;10.128;2023-09-18T12:53:32;22.60;99.90
15707;DHT22;7953;54.302;10.128;2023-09-18T12:56:06;22.50;99.90
15707;DHT22;7953;54.302;10.128;2023-09-18T12:58:33;22.50;99.90
15707;DHT22;7953;54.302;10.128;2023-09-18T13:01:04;22.60;99.90
15707;DHT22;7953;54.302;10.128;2023-09-18T13:03:35;22.60;99.90
15707;DHT22;7953;54.302;10.128;2023-09-18T13:06:09;22.60;99.90
15707;DHT22;7953;54.302;10.128;2023-09-18T13:08:37;22.60;99.90
15707;DHT22;7953;54.302;10.128;2023-09-18T13:11:04;22.60;99.90
15707;DHT22;7953;54.302;10.128;2023-09-18T13:13:32;22.50;99.90
15707;DHT22;7953;54.302;10.128;2023-09-18T13:16:00;22.60;99.90
15707;DHT22;7953;54.302;10.128;2023-09-18T13:18:48;22.60;99.90
15707;DHT22;7953;54.302;10.128;2023-09-18T13:28:02;22.80;99.90
15707;DHT22;7953;54.302;10.128;2023-09-18T13:30:30;22.90;99.90
15707;DHT22;7953;54.302;10.128;2023-09-18T13:33:03;23.00;99.90
15707;DHT22;7953;54.302;10.128;2023-09-18T13:35:31;23.10;99.90
15707;DHT22;7953;54.302;10.128;2023-09-18T13:37:58;23.10;99.90
15707;DHT22;7953;54.302;10.128;2023-09-18T13:40:25;23.20;99.90
15707;DHT22;7953;54.302;10.128;2023-09-18T13:42:53;23.40;99.90
15707;DHT22;7953;54.302;10.128;2023-09-18T13:45:22;23.60;99.90
15707;DHT22;7953;54.302;10.128;2023-09-18T13:47:50;23.70;99.90
15707;DHT22;7953;54.302;10.128;2023-09-18T13:50:17;23.80;99.90
15707;DHT22;7953;54.302;10.128;2023-09-18T13:52:44;23.70;99.90
15707;DHT22;7953;54.302;10.128;2023-09-18T13:55:11;23.60;99.90
15707;DHT22;7953;54.302;10.128;2023-09-18T13:57:38;23.50;99.90
15707;DHT22;7953;54.302;10.128;2023-09-18T14:00:07;23.40;99.90
15707;DHT22;7953;54.302;10.128;2023-09-18T14:02:39;23.40;99.90
15707;DHT22;7953;54.302;10.128;2023-09-18T14:05:07;23.50;99.90
15707;DHT22;7953;54.302;10.128;2023-09-18T14:07:34;23.70;99.90
15707;DHT22;7953;54.302;10.128;2023-09-18T14:10:02;23.90;99.90
15707;DHT22;7953;54.302;10.128;2023-09-18T14:12:29;24.00;99.90
15707;DHT22;7953;54.302;10.128;2023-09-18T14:14:57;24.00;99.90
15707;DHT22;7953;54.302;10.128;2023-09-18T14:17:25;23.90;99.90
15707;DHT22;7953;54.302;10.128;2023-09-18T14:19:54;23.90;99.90
15707;DHT22;7953;54.302;10.128;2023-09-18T14:22:21;23.80;99.90
15707;DHT22;7953;54.302;10.128;2023-09-18T14:24:47;23.60;99.90
15707;DHT22;7953;54.302;10.128;2023-09-18T14:27:14;23.40;99.90
15707;DHT22;7953;54.302;10.128;2023-09-18T14:29:41;23.40;99.90
15707;DHT22;7953;54.302;10.128;2023-09-18T14:32:08;23.30;99.90
15707;DHT22;7953;54.302;10.128;2023-09-18T14:34:49;23.10;99.90
15707;DHT22;7953;54.302;10.128;2023-09-18T14:37:21;23.10;99.90
15707;DHT22;7953;54.302;10.128;2023-09-18T14:39:48;23.00;99.90
15707;DHT22;7953;54.302;10.128;2023-09-18T14:42:17;23.00;99.90
15707;DHT22;7953;54.302;10.128;2023-09-18T14:44:44;23.00;99.90
15707;DHT22;7953;54.302;10.128;2023-09-18T14:47:11;23.00;99.90
15707;DHT22;7953;54.302;10.128;2023-09-18T14:49:38;23.00;99.90
15707;DHT22;7953;54.302;10.128;2023-09-18T14:52:05;23.10;99.90
15707;DHT22;7953;54.302;10.128;2023-09-18T14:54:34;23.20;99.90
15707;DHT22;7953;54.302;10.128;2023-09-18T14:57:02;23.40;99.90
15707;DHT22;7953;54.302;10.128;2023-09-18T14:59:29;23.60;99.90
15707;DHT22;7953;54.302;10.128;2023-09-18T15:01:56;23.80;99.90
15707;DHT22;7953;54.302;10.128;2023-09-18T15:04:23;23.90;99.90
15707;DHT22;7953;54.302;10.128;2023-09-18T15:06:50;24.10;99.90
15707;DHT22;7953;54.302;10.128;2023-09-18T15:09:19;24.10;99.90
15707;DHT22;7953;54.302;10.128;2023-09-18T15:11:47;24.10;99.90
15707;DHT22;7953;54.302;10.128;2023-09-18T15:14:14;23.90;99.90
15707;DHT22;7953;54.302;10.128;2023-09-18T15:16:41;23.80;99.90
15707;DHT22;7953;54.302;10.128;2023-09-18T15:19:08;23.60;99.90
15707;DHT22;7953;54.302;10.128;2023-09-18T15:21:39;23.40;99.90
15707;DHT22;7953;54.302;10.128;2023-09-18T15:24:07;23.30;99.90
15707;DHT22;7953;54.302;10.128;2023-09-18T15:26:34;23.30;99.90
15707;DHT22;7953;54.302;10.128;2023-09-18T15:29:03;23.30;99.90
15707;DHT22;7953;54.302;10.128;2023-09-18T15:31:33;23.20;99.90
15707;DHT22;7953;54.302;10.128;2023-09-18T15:34:00;23.10;99.90
15707;DHT22;7953;54.302;10.128;2023-09-18T15:36:28;23.10;99.90
15707;DHT22;7953;54.302;10.128;2023-09-18T15:38:56;23.10;99.90
15707;DHT22;7953;54.302;10.128;2023-09-18T15:41:24;23.20;99.90
15707;DHT22;7953;54.302;10.128;2023-09-18T15:43:51;23.30;99.90
15707;DHT22;7953;54.302;10.128;2023-09-18T15:46:19;23.40;99.90